Time;durP1;ratioP1;P1;durP2;ratioP2;P2;SDS_P1;SDS_P2;PMS_P1;PMS_P2;Temp;Humidity;BMP_temperature;BMP_pressure;BME280_temperature;BME280_humidity;BME280_pressure;Samples;Min_cycle;Max_cycle;Signal;HPM_P1;HPM_P2
2021/12/09 08:55:36;;;;;;;;;;;;;;;-3.73;65.55;100834.63;6042383;22;20566;-73
2021/12/09 08:58:03;;;;;;;;;;;;;;;-4.34;66.64;100825.75;6199502;22;20442;-74
2021/12/09 09:00:31;;;;;;;;;;;;;;;-4.79;69.64;100832.44;6216152;22;19923;-73
2021/12/09 09:02:57;;;;;;;;;;;;;;;-5.62;72.75;100851.59;6299772;22;19914;-72
2021/12/09 09:05:23;;;;;;;;;;;;;;;-5.18;70.71;100845.09;6258772;22;20368;-72
2021/12/09 09:07:49;;;;;;;;;;;;;;;-5.82;74.03;100842.56;6210680;22;19926;-73
2021/12/09 09:10:17;;;;;;;;;;;;;;;-5.99;74.48;100851.50;6325535;22;19915;-73
2021/12/09 09:12:43;;;;;;;;;;;;;;;-6.22;75.52;100849.97;6299070;22;20440;-74
2021/12/09 09:15:10;;;;;;;;;;;;;;;-6.23;76.14;100849.13;6300587;22;19915;-73
2021/12/09 09:17:36;;;;;;;;;;;;;;;-6.47;77.10;100834.03;6325099;22;19922;-74
2021/12/09 09:20:03;;;;;;;;;;;;;;;-6.69;78.03;100831.69;6325318;22;19914;-74
2021/12/09 09:22:30;;;;;;;;;;;;;;;-6.92;77.98;100842.81;6272579;22;19981;-75
2021/12/09 09:24:56;;;;;;;;;;;;;;;-6.98;78.53;100838.41;6300635;22;19921;-74
2021/12/09 09:27:22;;;;;;;;;;;;;;;-7.06;78.82;100846.59;6299860;22;19923;-75
2021/12/09 09:29:48;;;;;;;;;;;;;;;-7.11;78.54;100840.53;6298443;22;19936;-75
2021/12/09 09:32:14;;;;;;;;;;;;;;;-7.23;79.17;100837.59;6299850;22;19921;-74
2021/12/09 09:34:40;;;;;;;;;;;;;;;-7.27;79.29;100838.31;6298205;22;19915;-76
2021/12/09 09:37:06;;;;;;;;;;;;;;;-7.49;79.28;100852.81;6324606;22;20342;-74
2021/12/09 09:39:33;;;;;;;;;;;;;;;-7.52;78.89;100860.31;6324962;22;20281;-75
2021/12/09 09:42:16;;;;;;;;;;;;;;;-7.43;78.45;100844.56;6302709;22;19914;-76
2021/12/09 09:44:48;;;;;;;;;;;;;;;-7.39;77.59;100854.84;6281683;22;19914;-76
2021/12/09 09:47:17;;;;;;;;;;;;;;;-7.60;78.71;100854.13;6326437;22;19921;-77
2021/12/09 09:49:43;;;;;;;;;;;;;;;-7.53;79.12;100865.34;6302564;22;20346;-77
2021/12/09 09:52:10;;;;;;;;;;;;;;;-7.51;78.74;100873.84;6302386;22;20022;-73
2021/12/09 09:54:38;;;;;;;;;;;;;;;-7.36;78.07;100861.69;6301882;22;19937;-74
2021/12/09 09:57:05;;;;;;;;;;;;;;;-7.36;78.36;100868.44;6269428;22;19915;-75
2021/12/09 09:59:31;;;;;;;;;;;;;;;-7.23;77.61;100870.56;6269733;22;19919;-74
2021/12/09 10:01:57;;;;;;;;;;;;;;;-7.22;78.30;100865.53;6271794;22;19915;-75
2021/12/09 10:04:37;;;;;;;;;;;;;;;-6.96;77.23;100863.81;6246057;22;20014;-76
2021/12/09 10:07:03;;;;;;;;;;;;;;;-6.79;76.07;100872.81;6250171;22;19922;-74
2021/12/09 10:09:29;;;;;;;;;;;;;;;-6.73;75.81;100865.41;6245125;22;20014;-75
2021/12/09 10:11:55;;;;;;;;;;;;;;;-6.78;76.06;100861.88;6271140;22;19915;-74
2021/12/09 10:14:23;;;;;;;;;;;;;;;-6.78;76.06;100861.88;6219896;22;19915;-75
2021/12/09 10:17:01;;;;;;;;;;;;;;;-6.70;76.77;100857.88;6245641;22;19954;-75
2021/12/09 10:19:27;;;;;;;;;;;;;;;-6.80;76.82;100866.03;6244240;22;20308;-73
2021/12/09 10:22:03;;;;;;;;;;;;;;;-6.70;76.97;100855.34;6244642;22;19922;-75
2021/12/09 10:24:30;;;;;;;;;;;;;;;-6.76;76.52;100857.69;6245098;22;19915;-75
2021/12/09 10:26:56;;;;;;;;;;;;;;;-6.99;77.49;100836.69;6218638;22;19921;-76
2021/12/09 10:29:39;;;;;;;;;;;;;;;-6.85;76.11;100834.59;6244326;22;19934;-73
2021/12/09 10:32:06;;;;;;;;;;;;;;;-6.87;76.57;100841.25;6268908;22;20365;-75
2021/12/09 10:34:39;;;;;;;;;;;;;;;-6.99;76.21;100845.97;6269110;22;19915;-74
2021/12/09 10:37:08;;;;;;;;;;;;;;;-6.93;75.30;100851.22;6243077;22;19950;-76
2021/12/09 10:39:37;;;;;;;;;;;;;;;-7.10;76.35;100848.16;6243471;22;19921;-74
2021/12/09 10:42:05;;;;;;;;;;;;;;;-7.03;75.91;100850.09;6269273;22;20374;-74
2021/12/09 10:44:31;;;;;;;;;;;;;;;-7.03;75.27;100846.69;6218271;22;20334;-73
2021/12/09 10:47:11;;;;;;;;;;;;;;;-7.07;75.84;100855.03;6269178;22;19915;-74
2021/12/09 10:49:51;;;;;;;;;;;;;;;-6.99;76.16;100851.03;6271491;22;19968;-74
2021/12/09 10:52:23;;;;;;;;;;;;;;;-7.03;75.18;100856.81;6248168;22;19922;-74
2021/12/09 10:54:49;;;;;;;;;;;;;;;-7.08;75.83;100860.91;6245550;22;19926;-75
2021/12/09 10:57:25;;;;;;;;;;;;;;;-7.07;75.41;100860.09;6290552;22;20312;-73
2021/12/09 10:59:51;;;;;;;;;;;;;;;-7.12;74.80;100870.09;6301402;22;20080;-74
2021/12/09 11:02:17;;;;;;;;;;;;;;;-7.15;74.58;100876.75;6273781;22;20012;-75
2021/12/09 11:05:02;;;;;;;;;;;;;;;-7.21;74.56;100885.03;6301228;22;19915;-73
2021/12/09 11:07:31;;;;;;;;;;;;;;;-7.12;74.37;100876.84;6274018;22;19970;-74
2021/12/09 11:10:13;;;;;;;;;;;;;;;-7.16;74.30;100885.16;6273038;22;19953;-74
2021/12/09 11:16:33;;;;;;;;;;;;;;;-7.20;73.77;100901.09;6285096;22;19914;-73
2021/12/09 11:19:06;;;;;;;;;;;;;;;-7.27;73.80;100894.09;6274207;22;19918;-73
2021/12/09 11:21:34;;;;;;;;;;;;;;;-7.26;73.59;100905.97;6300959;22;19915;-73
2021/12/09 11:24:19;;;;;;;;;;;;;;;-7.26;73.96;100905.97;6299172;22;19925;-73
2021/12/09 11:29:23;;;;;;;;;;;;;;;-7.43;73.27;100883.44;6273821;22;19921;-73
2021/12/09 11:32:00;;;;;;;;;;;;;;;-7.45;73.90;100905.34;6273925;22;19968;-73
2021/12/09 11:34:38;;;;;;;;;;;;;;;-7.52;73.96;100905.94;6300005;22;19968;-75
2021/12/09 11:37:10;;;;;;;;;;;;;;;-7.50;73.48;100921.22;6274926;22;19911;-75
2021/12/09 11:39:37;;;;;;;;;;;;;;;-7.54;74.13;100922.78;6249533;22;19915;-74
2021/12/09 11:42:10;;;;;;;;;;;;;;;-7.55;74.88;100918.50;6301205;22;19973;-75
2021/12/09 11:44:36;;;;;;;;;;;;;;;-7.56;74.91;100921.84;6247998;22;20005;-75
2021/12/09 11:47:02;;;;;;;;;;;;;;;-7.60;74.43;100920.03;6274027;22;19950;-74
2021/12/09 11:49:28;;;;;;;;;;;;;;;-7.63;73.99;100924.13;6302912;22;19914;-74
2021/12/09 11:52:04;;;;;;;;;;;;;;;;;;;;;
2021/12/09 11:54:30;;;;;;;;;;;;;;;-7.73;74.80;100938.16;6278391;22;19946;-73
2021/12/09 11:57:17;;;;;;;;;;;;;;;-7.73;75.87;100925.50;6271332;22;19922;-74
2021/12/09 12:11:19;;;;;;;;;;;;;;;-7.89;76.28;100946.03;6252247;22;19918;-76
2021/12/09 12:13:51;;;;;;;;;;;;;;;-7.95;76.70;100955.94;6302182;22;20006;-74
2021/12/09 12:16:28;;;;;;;;;;;;;;;-7.99;76.67;100965.09;6249451;22;19915;-73
2021/12/09 12:19:02;;;;;;;;;;;;;;;-8.05;76.38;100972.44;6274306;22;19915;-74
2021/12/09 12:33:01;;;;;;;;;;;;;;;-8.30;77.82;100976.53;6193320;23;19923;-73
2021/12/09 12:35:50;;;;;;;;;;;;;;;-8.34;78.51;100984.84;6256472;22;19910;-73
2021/12/09 12:40:58;;;;;;;;;;;;;;;-8.48;78.84;100986.84;6275911;22;19914;-74
2021/12/09 12:43:25;;;;;;;;;;;;;;;-8.54;79.29;100987.44;6301041;22;19953;-74
2021/12/09 12:46:05;;;;;;;;;;;;;;;-8.58;79.25;100998.28;6248202;22;19915;-75
2021/12/09 12:51:07;;;;;;;;;;;;;;;-8.71;79.53;100993.53;6325515;22;19922;-75
2021/12/09 12:53:38;;;;;;;;;;;;;;;-8.75;79.85;101001.78;6301405;22;19983;-76
2021/12/09 12:56:13;;;;;;;;;;;;;;;-8.83;80.32;101009.88;6293938;22;19914;-75
2021/12/09 12:58:40;;;;;;;;;;;;;;;-8.87;80.59;101016.47;6269775;22;19968;-76
2021/12/09 13:01:15;;;;;;;;;;;;;;;-8.92;80.20;101022.97;6268142;22;19918;-74
2021/12/09 13:03:48;;;;;;;;;;;;;;;-8.99;81.02;101036.16;6243159;22;20018;-74
2021/12/09 13:06:37;;;;;;;;;;;;;;;-9.02;81.47;101036.03;6270665;22;20431;-77
2021/12/09 13:09:22;;;;;;;;;;;;;;;-9.05;81.13;101035.91;6230944;22;19915;-75
2021/12/09 13:11:52;;;;;;;;;;;;;;;-9.07;81.29;101045.97;6270517;22;19937;-76
2021/12/09 13:14:25;;;;;;;;;;;;;;;-9.10;81.13;101044.97;6221782;22;19989;-79
2021/12/09 13:17:06;;;;;;;;;;;;;;;-9.16;81.80;101057.38;6245183;22;19915;-77
2021/12/09 13:19:50;;;;;;;;;;;;;;;-9.16;81.83;101047.25;6242713;22;19989;-75
2021/12/09 13:22:25;;;;;;;;;;;;;;;-9.24;81.58;101057.03;6211314;22;20346;-75
2021/12/09 14:21:22;;;;;;;25.75;17.60;;;;;;;-9.78;82.99;101113.50;6122048;23;20092;-79
2021/12/09 14:23:49;;;;;;;29.40;18.17;;;;;;;-9.80;82.85;101124.34;6161075;23;20017;-78
2021/12/09 14:26:16;;;;;;;30.20;21.33;;;;;;;-10.06;83.16;101088.66;6099658;23;20025;-79
2021/12/09 14:28:43;;;;;;;25.58;18.23;;;;;;;-9.83;82.83;101125.09;6112572;23;20025;-80
2021/12/09 14:31:09;;;;;;;28.35;20.50;;;;;;;-9.92;82.69;101124.66;6136327;23;20024;-79
2021/12/09 14:33:45;;;;;;;19.58;12.35;;;;;;;-9.90;82.85;101130.63;6110962;23;20023;-79
2021/12/09 14:36:18;;;;;;;24.90;15.23;;;;;;;-9.93;82.65;101132.16;6182232;23;20468;-79
2021/12/09 14:38:44;;;;;;;27.42;19.33;;;;;;;-10.14;83.06;101106.78;6130185;23;20017;-78
2021/12/09 14:41:28;;;;;;;23.77;15.90;;;;;;;-9.97;82.70;101133.66;6161097;23;20052;-77
2021/12/09 14:43:59;;;;;;;15.85;13.98;;;;;;;-10.24;83.11;101119.78;6184504;23;20017;-80
2021/12/09 14:46:27;;;;;;;27.63;19.52;;;;;;;-10.14;83.53;101144.63;6130739;23;20040;-78
2021/12/09 14:48:54;;;;;;;18.52;14.40;;;;;;;-10.19;83.42;101128.41;6180362;23;20024;-78
2021/12/09 14:51:26;;;;;;;31.15;20.15;;;;;;;-10.25;83.39;101130.66;6152452;23;20419;-78
2021/12/09 14:54:01;;;;;;;27.58;20.50;;;;;;;-10.13;83.29;101141.28;6129141;23;20016;-77
2021/12/09 14:56:32;;;;;;;30.35;21.67;;;;;;;-10.18;83.17;101142.78;6154152;23;20017;-76
2021/12/09 14:59:28;;;;;;;25.00;17.67;;;;;;;-10.22;83.57;101148.47;6129241;23;20028;-76
2021/12/09 15:02:25;;;;;;;22.17;17.88;;;;;;;-10.18;83.22;101152.88;6157648;23;20076;-76
2021/12/09 15:05:00;;;;;;;32.88;21.83;;;;;;;-10.23;83.05;101157.69;6130120;23;20507;-76
2021/12/09 15:07:45;;;;;;;30.45;22.15;;;;;;;-10.23;83.07;101169.44;6180231;23;20449;-76
2021/12/09 15:10:29;;;;;;;25.55;17.63;;;;;;;-10.29;83.13;101157.38;6179791;23;20456;-76
2021/12/09 15:13:00;;;;;;;23.95;16.83;;;;;;;-10.29;82.71;101162.44;6157415;23;20021;-77
2021/12/09 15:15:33;;;;;;;30.13;19.40;;;;;;;-10.30;82.77;101162.34;6156979;23;20021;-78
2021/12/09 15:18:06;;;;;;;24.23;18.45;;;;;;;-10.29;82.70;101172.53;6106124;23;20025;-75
2021/12/09 15:20:52;;;;;;;23.75;18.27;;;;;;;-10.46;82.58;101148.13;6131097;23;20021;-76
2021/12/09 15:23:41;;;;;;;16.92;14.63;;;;;;;-10.42;82.87;101161.75;6179631;23;20021;-79
2021/12/09 15:26:17;;;;;;;26.35;18.70;;;;;;;-10.37;83.05;101178.00;6157761;23;20048;-79
2021/12/09 15:28:44;;;;;;;24.65;19.13;;;;;;;-10.42;83.23;101185.34;6154711;23;20111;-75
2021/12/09 15:31:19;;;;;;;15.50;11.27;;;;;;;-10.57;82.91;101161.00;6153046;23;20438;-76
2021/12/09 15:33:51;;;;;;;21.95;14.88;;;;;;;-10.47;83.46;101183.38;6153257;23;20472;-75
2021/12/09 15:36:18;;;;;;;15.48;12.68;;;;;;;-10.44;83.28;101186.03;6129236;23;20111;-75
2021/12/09 15:38:45;;;;;;;17.33;13.55;;;;;;;-10.54;83.19;101188.91;6177798;23;20019;-75
2021/12/09 15:41:22;;;;;;;15.80;14.13;;;;;;;-10.47;83.00;101193.47;6178313;23;20013;-76
2021/12/09 15:43:53;;;;;;;21.45;15.32;;;;;;;-10.49;83.25;101193.38;6178687;23;20412;-76
2021/12/09 15:46:19;;;;;;;16.83;11.88;;;;;;;-10.57;83.22;101196.31;6154630;23;20021;-78
2021/12/09 15:48:45;;;;;;;20.42;15.55;;;;;;;-10.62;82.99;101191.91;6154326;23;20476;-79
2021/12/09 15:51:24;;;;;;;26.33;14.40;;;;;;;-10.72;83.60;101189.69;6179954;23;20452;-77
2021/12/09 15:54:02;;;;;;;25.77;20.05;;;;;;;-10.64;83.43;101208.63;6179409;23;20021;-78
2021/12/09 15:56:31;;;;;;;23.88;14.70;;;;;;;-10.71;83.51;101201.50;6178523;23;20020;-78
2021/12/09 15:58:57;;;;;;;26.23;19.50;;;;;;;-10.84;83.29;101181.50;6180267;23;20020;-81
2021/12/09 16:01:25;;;;;;;21.55;15.43;;;;;;;-10.80;83.23;101195.13;6162107;23;20032;-80
2021/12/09 16:03:57;;;;;;;19.70;13.85;;;;;;;-10.76;83.54;101219.69;6139319;23;20048;-78
2021/12/09 16:06:23;;;;;;;15.95;13.75;;;;;;;-10.89;84.01;101195.50;6186010;23;20025;-80
2021/12/09 16:08:50;;;;;;;25.27;18.10;;;;;;;-10.85;83.67;101217.56;6183438;22;20024;-79
2021/12/09 16:11:21;;;;;;;15.90;12.30;;;;;;;-10.93;83.64;101207.91;6155758;23;20017;-80
2021/12/09 16:13:58;;;;;;;15.25;11.48;;;;;;;-11.20;83.65;101149.34;6158278;23;20024;-78
2021/12/09 16:16:24;;;;;;;10.45;7.85;;;;;;;-10.95;83.54;101220.41;6155403;23;20044;-79
2021/12/09 16:18:51;;;;;;;18.17;14.48;;;;;;;-10.95;83.91;101217.00;6153433;23;20107;-77
2021/12/09 16:21:18;;;;;;;19.17;12.10;;;;;;;-11.01;84.28;101215.03;6155008;23;20039;-77
2021/12/09 16:23:46;;;;;;;16.05;13.35;;;;;;;-11.03;83.83;101210.72;6104351;23;20008;-77
2021/12/09 16:26:14;;;;;;;14.18;11.38;;;;;;;-11.21;84.08;101180.34;6155294;23;20506;-80
2021/12/09 16:28:43;;;;;;;16.77;13.25;;;;;;;-11.14;83.54;101198.41;6151902;23;20492;-80
2021/12/09 16:31:09;;;;;;;16.90;12.93;;;;;;;-11.07;83.91;101224.81;6180287;23;20412;-78
2021/12/09 16:33:36;;;;;;;22.10;15.40;;;;;;;-11.08;84.27;101218.03;6177834;23;20024;-79
2021/12/09 16:36:04;;;;;;;22.30;16.02;;;;;;;-11.12;84.23;101232.09;6128535;23;20079;-79
2021/12/09 16:38:31;;;;;;;18.50;14.40;;;;;;;-11.17;84.27;101233.53;6177745;23;20020;-78
2021/12/09 16:40:57;;;;;;;14.25;12.27;;;;;;;-11.23;84.70;101219.72;6152899;23;20024;-79
2021/12/09 16:43:27;;;;;;;18.35;14.02;;;;;;;-11.39;84.56;101197.03;6128313;23;20025;-78
2021/12/09 16:45:54;;;;;;;13.52;12.02;;;;;;;-11.27;84.59;101233.81;6177688;23;20051;-79
2021/12/09 16:48:20;;;;;;;13.65;10.98;;;;;;;-11.37;84.02;101224.03;6127170;23;20017;-77
2021/12/09 16:50:49;;;;;;;14.98;11.60;;;;;;;-11.31;84.35;101226.00;6129098;23;20016;-77
2021/12/09 16:53:20;;;;;;;16.33;14.23;;;;;;;-11.35;84.35;101231.69;6175903;23;20025;-77
2021/12/09 16:56:12;;;;;;;19.15;15.23;;;;;;;-11.47;84.83;101220.91;6175856;23;20647;-79
2021/12/09 16:58:37;;;;;;;17.80;15.02;;;;;;;-11.43;85.00;101240.47;6106356;23;20116;-77
2021/12/09 17:01:12;;;;;;;9.43;8.45;;;;;;;-11.47;84.81;101239.41;6176581;23;20044;-76
2021/12/09 17:03:39;;;;;;;17.08;13.90;;;;;;;-11.47;84.35;101231.00;6177209;23;20107;-78
2021/12/09 17:06:05;;;;;;;10.40;9.40;;;;;;;-11.48;85.14;101231.78;6177156;23;20368;-78
2021/12/09 17:08:31;;;;;;;14.63;12.13;;;;;;;-11.49;84.75;101242.66;6152337;23;20091;-78
2021/12/09 17:10:58;;;;;;;17.92;14.48;;;;;;;-11.47;85.06;101238.53;6128386;23;20453;-78
2021/12/09 17:13:24;;;;;;;17.30;14.43;;;;;;;-11.48;85.27;101249.44;6177523;23;20028;-78
2021/12/09 17:15:50;;;;;;;19.58;15.82;;;;;;;-11.58;85.16;101234.59;6180209;23;20082;-78
2021/12/09 17:18:16;;;;;;;16.35;12.93;;;;;;;-11.60;85.52;101253.75;6153678;23;20028;-78
2021/12/09 17:20:42;;;;;;;18.33;13.07;;;;;;;-11.60;84.82;101253.75;6104061;23;20017;-78
2021/12/09 17:23:09;;;;;;;23.85;16.75;;;;;;;-11.63;85.09;101262.91;6128508;23;20028;-78
2021/12/09 17:25:36;;;;;;;18.67;15.27;;;;;;;-11.61;85.37;101267.16;6152094;23;20088;-78
2021/12/09 17:28:05;;;;;;;23.48;17.45;;;;;;;-11.76;85.47;101257.97;6152268;23;20017;-79
2021/12/09 17:30:32;;;;;;;17.60;13.35;;;;;;;-11.76;85.35;101267.19;6152743;23;20021;-78
2021/12/09 17:32:59;;;;;;;21.67;15.75;;;;;;;-11.77;85.20;101268.81;6153325;23;20025;-79
2021/12/09 17:35:26;;;;;;;17.20;12.65;;;;;;;-11.86;85.50;101268.31;6154565;23;20071;-79
2021/12/09 17:37:53;;;;;;;22.67;17.30;;;;;;;-11.92;85.37;101269.63;6152509;23;20457;-75
2021/12/09 17:40:20;;;;;;;20.80;13.10;;;;;;;-11.94;85.96;101267.00;6175919;23;20023;-76
2021/12/09 17:42:46;;;;;;;23.30;17.35;;;;;;;-12.00;85.16;101266.66;6152015;23;20128;-76
2021/12/09 17:45:17;;;;;;;17.58;12.60;;;;;;;-11.94;85.91;101282.09;6177394;23;20491;-76
2021/12/09 17:47:47;;;;;;;19.08;12.48;;;;;;;-11.98;85.24;101284.38;6129258;23;20108;-75
2021/12/09 17:50:15;;;;;;;23.00;17.85;;;;;;;-12.12;85.96;101273.50;6178447;23;20021;-75
2021/12/09 17:52:45;;;;;;;14.98;11.27;;;;;;;-12.10;85.97;101294.56;6178950;23;20457;-76
2021/12/09 17:55:11;;;;;;;19.77;12.68;;;;;;;-12.14;85.50;101302.75;6179083;23;20024;-76
2021/12/09 17:57:38;;;;;;;20.27;13.85;;;;;;;-12.14;86.30;101297.72;6175661;23;20112;-76
2021/12/09 18:00:07;;;;;;;23.10;14.05;;;;;;;-12.15;86.18;101300.13;6179171;23;20028;-76
2021/12/09 18:02:38;;;;;;;20.27;15.27;;;;;;;-12.14;85.84;101302.75;6178688;23;20020;-77
2021/12/09 18:05:05;;;;;;;22.13;14.90;;;;;;;-12.13;85.85;101312.00;6128297;23;20513;-76
2021/12/09 18:07:32;;;;;;;19.95;12.48;;;;;;;-12.15;86.22;101313.56;6178374;23;20024;-78
2021/12/09 18:09:58;;;;;;;21.73;14.80;;;;;;;-12.18;86.09;101320.94;6152600;23;20017;-76
2021/12/09 18:12:27;;;;;;;15.45;12.98;;;;;;;-12.23;86.16;101308.09;6153215;23;20614;-77
2021/12/09 18:14:53;;;;;;;25.40;11.43;;;;;;;-12.26;86.89;101309.56;6132331;23;20027;-76
2021/12/09 18:17:21;;;;;;;19.00;12.35;;;;;;;-12.25;86.72;101322.22;6184130;23;20021;-79
2021/12/09 18:19:48;;;;;;;12.73;9.20;;;;;;;-12.32;86.79;101321.78;6107524;23;20028;-79
2021/12/09 18:22:15;;;;;;;12.98;9.68;;;;;;;-12.41;86.96;101336.31;6184060;23;20020;-75
2021/12/09 18:25:33;;;;;;;13.35;9.20;;;;;;;-12.44;86.17;101338.66;6154974;23;20021;-75
2021/12/09 18:28:02;;;;;;;15.68;10.30;;;;;;;-12.57;87.08;101326.13;6180616;23;20023;-77
2021/12/09 18:30:31;;;;;;;12.23;9.60;;;;;;;-12.51;86.96;101334.03;6105697;23;20021;-76
2021/12/09 18:32:57;;;;;;;9.75;8.75;;;;;;;-12.59;86.23;101347.75;6153960;23;20009;-76
2021/12/09 18:35:26;;;;;;;15.15;8.88;;;;;;;-12.54;86.46;101338.88;6129922;23;20124;-77
2021/12/09 18:37:56;;;;;;;13.35;9.02;;;;;;;-12.60;87.16;101349.44;6156473;23;20020;-75
2021/12/09 18:40:25;;;;;;;12.65;8.60;;;;;;;-12.63;87.12;101345.84;6129869;23;20357;-75
2021/12/09 18:42:51;;;;;;;14.52;10.13;;;;;;;-12.71;86.84;101341.22;6129271;23;20013;-76
2021/12/09 18:45:20;;;;;;;16.70;10.07;;;;;;;-12.69;86.79;101345.50;6105827;23;20067;-77
2021/12/09 18:47:47;;;;;;;14.32;12.25;;;;;;;-12.69;86.18;101350.50;6154644;23;20024;-78
2021/12/09 18:50:15;;;;;;;14.85;9.82;;;;;;;-12.81;86.12;101348.97;6183243;23;20021;-79
2021/12/09 18:52:41;;;;;;;9.57;7.40;;;;;;;-12.83;86.34;101355.56;6157635;23;20021;-79
2021/12/09 18:55:07;;;;;;;12.88;8.55;;;;;;;-12.82;86.71;101346.34;6105750;23;20095;-78
2021/12/09 18:57:33;;;;;;;20.40;9.80;;;;;;;-12.91;86.22;101351.69;6129408;23;20539;-80
2021/12/09 19:00:00;;;;;;;18.27;9.90;;;;;;;-12.95;87.20;101354.78;6154918;23;20039;-78
2021/12/09 19:02:27;;;;;;;9.75;7.30;;;;;;;-13.03;86.82;101345.91;6106714;23;20025;-78
2021/12/09 19:04:53;;;;;;;11.60;9.55;;;;;;;-13.03;87.40;101360.97;6130334;23;20103;-79
2021/12/09 19:07:20;;;;;;;10.52;7.03;;;;;;;-13.10;86.99;101358.00;6130472;23;20079;-77
2021/12/09 19:09:46;;;;;;;9.93;8.63;;;;;;;-13.13;86.90;101362.84;6154295;23;20023;-79
2021/12/09 19:12:13;;;;;;;17.38;12.52;;;;;;;-13.16;87.18;101360.13;6129302;23;20048;-78
2021/12/09 19:14:39;;;;;;;16.67;11.00;;;;;;;-13.19;86.47;101354.94;6180726;23;20059;-78
2021/12/09 19:17:07;;;;;;;13.57;9.73;;;;;;;-13.17;87.44;101364.28;6129362;23;20449;-78
2021/12/09 19:19:33;;;;;;;11.43;9.30;;;;;;;-13.16;86.19;101373.56;6136708;23;20040;-77
2021/12/09 19:22:00;;;;;;;11.43;9.73;;;;;;;-13.17;86.71;101388.53;6184594;23;20108;-80
2021/12/09 19:24:27;;;;;;;21.70;11.90;;;;;;;-13.19;86.53;101375.88;6131478;23;20024;-78
2021/12/09 19:26:55;;;;;;;14.50;12.18;;;;;;;-13.12;86.83;101388.06;6130555;23;20025;-77
2021/12/09 19:29:22;;;;;;;16.25;11.15;;;;;;;-13.16;85.63;101378.59;6180579;23;20071;-77
2021/12/09 19:31:48;;;;;;;14.52;12.20;;;;;;;-13.27;86.28;101377.91;6180625;23;20092;-79
2021/12/09 19:34:15;;;;;;;22.67;16.20;;;;;;;-13.18;87.26;101381.78;6154206;23;20021;-77
2021/12/09 19:36:43;;;;;;;14.98;11.90;;;;;;;-13.23;86.64;101376.47;6156516;23;20021;-78
2021/12/09 19:39:09;;;;;;;9.15;7.32;;;;;;;-13.25;86.83;101378.00;6133196;23;20021;-78
2021/12/09 19:41:38;;;;;;;9.85;8.85;;;;;;;-13.32;86.28;101380.91;6154605;23;20076;-79
2021/12/09 19:44:05;;;;;;;14.50;11.65;;;;;;;-13.34;86.12;101385.81;6129939;23;20132;-77
2021/12/09 19:46:31;;;;;;;10.85;8.88;;;;;;;-13.38;86.88;101378.00;6181305;23;20025;-77
2021/12/09 19:48:58;;;;;;;14.75;9.30;;;;;;;-13.35;86.39;101385.72;6155476;23;20096;-77
2021/12/09 19:51:24;;;;;;;13.18;10.93;;;;;;;-13.40;86.29;101387.94;6132617;23;20017;-79
2021/12/09 19:53:51;;;;;;;9.25;7.30;;;;;;;-13.52;86.81;101372.09;6138771;23;20013;-77
2021/12/09 19:56:18;;;;;;;11.95;9.60;;;;;;;-13.51;86.60;101372.97;6149583;23;20042;-78
2021/12/09 19:58:44;;;;;;;14.90;11.07;;;;;;;-13.41;86.52;101385.31;6174080;23;20028;-78
2021/12/09 20:01:11;;;;;;;8.27;7.13;;;;;;;-13.45;86.59;101380.88;6175934;23;20041;-78
2021/12/09 20:03:37;;;;;;;15.82;9.48;;;;;;;-13.50;86.46;101384.72;6153517;23;20001;-79
2021/12/09 20:06:07;;;;;;;11.07;9.48;;;;;;;-13.64;86.40;101376.28;6153623;23;20064;-79
2021/12/09 20:08:36;;;;;;;15.57;12.25;;;;;;;-13.56;86.09;101384.31;6151445;23;20090;-77
2021/12/09 20:11:05;;;;;;;9.65;8.65;;;;;;;-13.70;86.86;101367.47;6201774;23;20017;-80
2021/12/09 20:13:38;;;;;;;12.15;9.05;;;;;;;-13.64;86.03;101390.50;6126408;23;20076;-77
2021/12/09 20:16:08;;;;;;;19.33;13.38;;;;;;;-13.59;86.49;101389.16;6174331;23;20020;-78
2021/12/09 20:18:36;;;;;;;14.25;9.70;;;;;;;-13.72;86.35;101372.41;6190212;23;20016;-80
2021/12/09 20:21:06;;;;;;;11.60;8.25;;;;;;;-13.77;86.59;101369.59;6200755;23;20017;-80
2021/12/09 20:23:32;;;;;;;15.73;11.80;;;;;;;-13.74;86.08;101378.13;6164913;23;20036;-78
2021/12/09 20:25:59;;;;;;;12.75;10.15;;;;;;;-13.71;86.39;101383.34;6155310;23;20021;-78
2021/12/09 20:28:25;;;;;;;12.85;9.63;;;;;;;-13.69;86.68;101392.69;6178860;23;20017;-76
2021/12/09 20:30:51;;;;;;;16.48;10.80;;;;;;;-13.77;86.58;101372.91;6178072;23;20087;-76
2021/12/09 20:33:17;;;;;;;17.13;10.70;;;;;;;-13.81;86.36;101372.69;6179934;23;20017;-75
2021/12/09 20:35:43;;;;;;;15.70;9.05;;;;;;;-13.80;86.53;101384.44;6178985;23;20017;-80
2021/12/09 20:38:09;;;;;;;17.15;12.02;;;;;;;-13.77;86.12;101387.16;6155961;23;20075;-80
2021/12/09 20:40:35;;;;;;;10.77;9.68;;;;;;;-13.74;86.63;101390.66;6083568;23;20017;-78
2021/12/09 20:43:01;;;;;;;14.60;9.80;;;;;;;-13.72;86.14;101389.09;6105216;23;20170;-80
2021/12/09 20:45:27;;;;;;;19.05;12.35;;;;;;;-14.04;86.02;101356.88;6130618;23;20103;-79
2021/12/09 20:47:55;;;;;;;12.70;10.93;;;;;;;-13.96;86.05;101360.75;6132282;23;20441;-79
2021/12/09 20:50:33;;;;;;;10.77;8.40;;;;;;;-13.92;86.80;101373.63;6183052;23;20475;-82
2021/12/09 20:53:00;;;;;;;15.68;11.52;;;;;;;-13.85;87.38;101385.81;6109317;23;20027;-80
2021/12/09 20:55:26;;;;;;;13.68;11.07;;;;;;;-13.88;86.96;101380.59;6133501;23;20024;-78
2021/12/09 20:57:52;;;;;;;12.93;8.73;;;;;;;-13.87;86.96;101377.28;6128466;23;20124;-79
2021/12/09 21:00:20;;;;;;;16.30;12.18;;;;;;;-13.91;86.93;101375.38;6128744;23;20021;-78
2021/12/09 21:02:47;;;;;;;20.83;14.30;;;;;;;-13.91;87.30;101370.34;6153593;23;20162;-80
2021/12/09 21:05:13;;;;;;;20.95;13.55;;;;;;;-13.92;86.83;101371.09;6153265;23;20346;-76
2021/12/09 21:07:39;;;;;;;18.83;12.30;;;;;;;-14.09;87.43;101353.19;6104187;23;20051;-77
2021/12/09 21:10:06;;;;;;;16.55;10.68;;;;;;;-13.96;86.43;101361.63;6152649;23;20013;-77
2021/12/09 21:12:33;;;;;;;12.85;9.02;;;;;;;-14.13;86.72;101354.63;6153476;23;20044;-79
2021/12/09 21:15:00;;;;;;;7.05;6.38;;;;;;;-14.07;86.67;101360.06;6128566;23;20033;-79
2021/12/09 21:17:29;;;;;;;17.10;11.45;;;;;;;-14.04;87.33;101365.28;6107002;23;20111;-80
2021/12/09 21:19:55;;;;;;;11.77;10.50;;;;;;;-14.13;86.48;101359.63;6153131;23;20088;-79
2021/12/09 21:22:22;;;;;;;23.08;17.00;;;;;;;-13.99;87.14;101366.44;6130793;23;20023;-78
2021/12/09 21:24:48;;;;;;;13.18;10.00;;;;;;;-14.11;86.25;101370.66;6185126;23;20017;-80
2021/12/09 21:27:17;;;;;;;19.65;12.85;;;;;;;-14.10;87.11;101372.38;6133896;23;20112;-80
2021/12/09 21:29:43;;;;;;;16.08;9.77;;;;;;;-14.10;87.20;101374.88;6133432;23;20461;-81
2021/12/09 21:32:12;;;;;;;16.58;10.82;;;;;;;-14.12;86.78;101383.94;6158504;23;20024;-80
2021/12/09 21:34:44;;;;;;;17.55;11.27;;;;;;;-14.35;87.19;101346.47;6156128;23;20178;-81
2021/12/09 21:37:19;;;;;;;16.75;10.52;;;;;;;-14.21;87.19;101368.28;6133232;23;20017;-81
2021/12/09 21:39:46;;;;;;;13.98;8.77;;;;;;;-14.21;87.16;101373.31;6133362;23;20021;-81
2021/12/09 21:42:12;;;;;;;11.57;8.93;;;;;;;-14.22;87.31;101374.06;6181195;23;20072;-81
2021/12/09 21:44:40;;;;;;;22.33;14.35;;;;;;;-14.30;87.22;101360.16;6180807;23;20762;-81
2021/12/09 21:47:07;;;;;;;14.05;9.43;;;;;;;-14.33;86.68;101363.31;6132904;23;20021;-81
2021/12/09 21:49:34;;;;;;;14.35;11.73;;;;;;;-14.23;87.25;101374.81;6134692;23;20017;-80
2021/12/09 21:52:01;;;;;;;13.70;9.25;;;;;;;-14.32;87.50;101375.06;6157629;23;20052;-81
2021/12/09 21:54:27;;;;;;;14.60;10.75;;;;;;;-14.28;86.77;101386.19;6133605;23;20021;-80
2021/12/09 21:56:53;;;;;;;16.58;12.30;;;;;;;-14.26;87.05;101389.66;6158007;23;20421;-80
2021/12/09 21:59:19;;;;;;;17.40;11.60;;;;;;;-14.36;87.38;101368.16;6132608;23;20096;-80
2021/12/09 22:01:45;;;;;;;17.30;13.05;;;;;;;-14.21;87.52;101395.88;6109087;23;20017;-80
2021/12/09 22:04:13;;;;;;;24.05;14.23;;;;;;;-14.21;87.63;101382.47;6182004;23;20021;-80
2021/12/09 22:06:40;;;;;;;11.15;9.15;;;;;;;-14.17;87.26;101400.34;6132344;23;20024;-80
2021/12/09 22:09:06;;;;;;;10.35;9.25;;;;;;;-14.22;87.08;101395.75;6157290;23;20021;-81
2021/12/09 22:11:33;;;;;;;19.60;13.75;;;;;;;-14.09;86.60;101406.72;6181916;23;20055;-79